createdAt,value
2022-08-18T00:00:12.370Z,18.30
2022-08-18T00:03:00.915Z,18.20
2022-08-18T00:05:30.592Z,18.20
2022-08-18T00:07:59.552Z,18.20
2022-08-18T00:10:28.560Z,18.20
2022-08-18T00:12:58.818Z,18.20
2022-08-18T00:15:31.609Z,18.20
2022-08-18T00:18:10.441Z,18.20
2022-08-18T00:20:41.676Z,18.10
2022-08-18T00:23:10.503Z,18.10
2022-08-18T00:25:38.982Z,18.10
2022-08-18T00:28:07.687Z,18.10
2022-08-18T00:30:37.793Z,18.10
2022-08-18T00:33:06.435Z,18.10
2022-08-18T00:35:36.400Z,18.00
2022-08-18T00:38:06.311Z,18.00
2022-08-18T00:40:38.314Z,18.00
2022-08-18T00:43:08.798Z,17.90
2022-08-18T00:45:40.552Z,17.90
2022-08-18T00:48:10.407Z,17.90
2022-08-18T00:50:43.750Z,17.90
2022-08-18T00:53:13.787Z,17.80
2022-08-18T00:55:54.480Z,17.80
2022-08-18T00:58:27.247Z,17.80
2022-08-18T01:00:57.867Z,17.80
2022-08-18T01:03:26.953Z,17.70
2022-08-18T01:05:57.357Z,17.70
2022-08-18T01:08:29.189Z,17.70
2022-08-18T01:10:59.011Z,17.60
2022-08-18T01:13:29.178Z,17.60
2022-08-18T01:15:59.108Z,17.50
2022-08-18T01:18:45.144Z,17.00
2022-08-18T01:21:33.076Z,17.40
2022-08-18T01:24:04.691Z,17.40
2022-08-18T01:26:35.107Z,17.40
2022-08-18T01:29:06.091Z,17.30
2022-08-18T01:31:38.209Z,17.30
2022-08-18T01:34:07.715Z,17.20
2022-08-18T01:36:37.510Z,17.20
2022-08-18T01:39:08.342Z,17.20
2022-08-18T01:41:37.039Z,17.10
2022-08-18T01:44:05.972Z,17.10
2022-08-18T01:46:35.784Z,17.00
2022-08-18T01:49:04.950Z,17.00
2022-08-18T01:51:40.448Z,17.00
2022-08-18T01:54:13.116Z,17.00
2022-08-18T01:56:43.361Z,17.00
2022-08-18T01:59:14.725Z,16.90
2022-08-18T02:01:48.702Z,16.90
2022-08-18T02:04:34.985Z,16.80
2022-08-18T02:07:06.015Z,16.80
2022-08-18T02:09:37.597Z,16.80
2022-08-18T02:12:07.384Z,16.90
2022-08-18T02:14:36.092Z,16.90
2022-08-18T02:17:05.317Z,16.90
2022-08-18T02:19:34.811Z,16.90
2022-08-18T02:22:03.848Z,16.90
2022-08-18T02:24:32.662Z,16.90
2022-08-18T02:27:02.752Z,16.90
2022-08-18T02:29:31.235Z,16.80
2022-08-18T02:31:59.838Z,16.70
2022-08-18T02:34:28.567Z,16.70
2022-08-18T02:36:57.602Z,16.60
2022-08-18T02:39:26.288Z,16.60
2022-08-18T02:41:54.955Z,16.60
2022-08-18T02:44:25.762Z,16.50
2022-08-18T02:46:55.003Z,16.50
2022-08-18T02:49:24.217Z,16.50
2022-08-18T02:51:53.425Z,16.50
2022-08-18T02:54:23.213Z,16.50
2022-08-18T02:56:52.313Z,16.50
2022-08-18T02:59:21.879Z,16.50
2022-08-18T03:01:52.805Z,16.50
2022-08-18T03:04:28.154Z,16.50
2022-08-18T03:06:58.442Z,16.40
2022-08-18T03:09:28.164Z,16.40
2022-08-18T03:11:56.804Z,16.30
2022-08-18T03:14:25.576Z,16.30
2022-08-18T03:16:55.675Z,16.30
2022-08-18T03:19:25.715Z,16.30
2022-08-18T03:21:55.058Z,16.30
2022-08-18T03:24:26.710Z,16.30
2022-08-18T03:26:57.805Z,16.30
2022-08-18T03:29:31.157Z,16.30
2022-08-18T03:32:03.205Z,16.40
2022-08-18T03:34:32.383Z,16.40
2022-08-18T03:37:01.706Z,16.30
2022-08-18T03:39:30.797Z,16.40
2022-08-18T03:42:01.678Z,16.40
2022-08-18T03:44:31.711Z,16.40
2022-08-18T03:47:01.592Z,16.50
2022-08-18T03:49:32.370Z,16.50
2022-08-18T03:52:01.502Z,16.60
2022-08-18T03:54:32.071Z,16.60
2022-08-18T03:57:01.353Z,16.60
2022-08-18T03:59:32.133Z,16.60
2022-08-18T04:02:04.308Z,16.70
2022-08-18T04:04:34.604Z,16.70
2022-08-18T04:07:07.033Z,16.80
2022-08-18T04:09:36.129Z,16.80
2022-08-18T04:12:15.654Z,16.90
2022-08-18T04:17:15.345Z,17.10
2022-08-18T04:19:45.310Z,17.20
2022-08-18T04:22:17.573Z,17.30
2022-08-18T04:24:49.601Z,17.40
2022-08-18T04:27:18.955Z,17.50
2022-08-18T04:29:47.751Z,17.60
2022-08-18T04:32:16.528Z,17.70
2022-08-18T04:34:46.594Z,17.80
2022-08-18T04:37:15.556Z,17.80
2022-08-18T04:39:44.389Z,17.90
2022-08-18T04:42:13.524Z,18.00
2022-08-18T04:44:42.527Z,18.10
2022-08-18T04:47:13.217Z,18.20
2022-08-18T04:49:44.669Z,18.30
2022-08-18T04:52:40.366Z,18.30
2022-08-18T04:55:11.365Z,18.40
2022-08-18T04:57:42.566Z,18.50
2022-08-18T05:00:12.855Z,18.60
2022-08-18T05:02:41.540Z,18.70
2022-08-18T05:05:11.303Z,18.80
2022-08-18T05:07:46.285Z,18.90
2022-08-18T05:10:17.954Z,19.00
2022-08-18T05:12:48.331Z,19.10
2022-08-18T05:15:17.885Z,19.10
2022-08-18T05:17:47.634Z,20.60
2022-08-18T05:20:19.991Z,19.30
2022-08-18T05:22:50.075Z,19.40
2022-08-18T05:25:18.792Z,19.50
2022-08-18T05:27:47.579Z,19.60
2022-08-18T05:30:16.818Z,19.70
2022-08-18T05:32:50.124Z,19.80
2022-08-18T05:35:22.123Z,19.90
2022-08-18T05:38:09.473Z,20.00
2022-08-18T05:40:39.935Z,20.10
2022-08-18T05:43:09.722Z,20.20
2022-08-18T05:45:39.813Z,20.30
2022-08-18T05:48:08.566Z,20.50
2022-08-18T05:50:38.308Z,20.60
2022-08-18T05:53:13.892Z,20.60
2022-08-18T05:56:04.337Z,20.80
2022-08-18T05:58:35.088Z,20.90
2022-08-18T06:01:04.990Z,21.10
2022-08-18T06:03:45.080Z,21.20
2022-08-18T06:06:18.802Z,21.40
2022-08-18T06:08:49.659Z,21.50
2022-08-18T06:11:22.741Z,21.60
2022-08-18T06:13:59.375Z,21.80
2022-08-18T06:16:37.095Z,21.90
2022-08-18T06:19:15.843Z,22.00
2022-08-18T06:21:46.937Z,22.10
2022-08-18T06:24:21.610Z,22.30
2022-08-18T06:26:57.144Z,22.40
2022-08-18T06:29:37.635Z,22.50
2022-08-18T06:32:11.421Z,22.60
2022-08-18T06:34:44.937Z,22.80
2022-08-18T06:37:17.691Z,22.90
2022-08-18T06:39:47.947Z,22.90
2022-08-18T06:42:21.690Z,23.10
2022-08-18T06:44:52.559Z,23.10
2022-08-18T06:47:28.517Z,23.20
2022-08-18T06:50:02.157Z,23.30
2022-08-18T06:52:33.693Z,23.40
2022-08-18T06:55:03.982Z,23.40
2022-08-18T06:57:35.605Z,23.60
2022-08-18T07:00:11.322Z,23.70
2022-08-18T07:02:51.399Z,23.80
2022-08-18T07:08:04.542Z,24.00
2022-08-18T07:10:34.683Z,24.10
2022-08-18T07:13:16.174Z,24.20
2022-08-18T07:15:45.405Z,24.20
2022-08-18T07:18:14.721Z,24.30
2022-08-18T07:20:44.879Z,24.30
2022-08-18T07:23:24.231Z,24.50
2022-08-18T07:28:29.767Z,24.70
2022-08-18T07:31:17.087Z,24.80
2022-08-18T07:33:52.260Z,24.80
2022-08-18T07:38:53.439Z,25.10
2022-08-18T07:41:26.785Z,25.20
2022-08-18T07:44:02.927Z,25.30
2022-08-18T07:46:36.298Z,25.30
2022-08-18T07:49:06.473Z,25.40
2022-08-18T07:51:46.665Z,25.40
2022-08-18T07:54:47.561Z,25.40
2022-08-18T07:57:19.916Z,25.50
2022-08-18T08:00:03.158Z,25.50
2022-08-18T08:02:45.290Z,25.50
2022-08-18T08:05:26.010Z,25.60
2022-08-18T08:07:57.256Z,25.60
2022-08-18T08:10:31.606Z,25.90
2022-08-18T08:13:09.598Z,25.90
2022-08-18T08:15:47.971Z,25.90
2022-08-18T08:18:20.077Z,26.00
2022-08-18T08:20:52.453Z,26.00
2022-08-18T08:23:25.707Z,26.20
2022-08-18T08:26:00.698Z,26.20
2022-08-18T08:28:35.434Z,26.20
2022-08-18T08:31:33.187Z,26.20
2022-08-18T08:34:06.128Z,26.50
2022-08-18T08:36:36.983Z,26.70
2022-08-18T08:39:07.220Z,26.70
2022-08-18T08:41:39.787Z,26.80
2022-08-18T08:44:10.351Z,27.00
2022-08-18T08:46:44.609Z,27.00
2022-08-18T08:49:18.864Z,27.00
2022-08-18T08:51:51.008Z,27.10
2022-08-18T08:54:23.467Z,27.30
2022-08-18T08:56:53.528Z,27.30
2022-08-18T08:59:23.278Z,27.40
2022-08-18T09:01:57.684Z,27.60
2022-08-18T09:04:32.786Z,27.80
2022-08-18T09:07:10.228Z,28.10
2022-08-18T09:09:50.766Z,28.20
2022-08-18T09:12:26.638Z,28.40
2022-08-18T09:15:02.578Z,28.40
2022-08-18T09:17:42.501Z,28.40
2022-08-18T09:20:23.057Z,28.40
2022-08-18T09:22:53.206Z,28.50
2022-08-18T09:28:10.504Z,28.60
2022-08-18T09:30:47.740Z,28.50
2022-08-18T09:33:21.769Z,28.40
2022-08-18T09:36:06.401Z,28.30
2022-08-18T09:39:03.198Z,28.20
2022-08-18T09:41:35.227Z,28.20
2022-08-18T09:44:17.884Z,28.10
2022-08-18T09:46:52.352Z,28.10
2022-08-18T09:49:51.229Z,28.20
2022-08-18T09:52:39.104Z,28.40
2022-08-18T09:55:30.407Z,28.50
2022-08-18T09:58:14.991Z,28.50
2022-08-18T10:00:46.068Z,28.50
2022-08-18T10:06:27.973Z,28.40
2022-08-18T10:18:59.043Z,28.90
2022-08-18T10:39:24.010Z,29.00
2022-08-18T10:41:59.861Z,29.30
2022-08-18T10:44:30.917Z,29.40
2022-08-18T10:47:01.429Z,29.60
2022-08-18T10:49:33.199Z,29.90
2022-08-18T10:54:51.239Z,30.00
2022-08-18T10:57:27.411Z,30.10
2022-08-18T10:59:59.818Z,30.10
2022-08-18T11:02:40.382Z,30.30
2022-08-18T11:05:12.078Z,30.50
2022-08-18T11:07:44.867Z,30.80
2022-08-18T11:10:58.134Z,31.00
2022-08-18T11:13:12.057Z,31.00
2022-08-18T11:15:47.314Z,31.00
2022-08-18T11:20:48.407Z,31.20
2022-08-18T11:23:18.372Z,31.20
2022-08-18T11:25:48.597Z,31.30
2022-08-18T11:28:19.499Z,31.40
2022-08-18T11:30:50.459Z,31.50
2022-08-18T11:33:23.212Z,31.70
2022-08-18T11:36:09.728Z,31.50
2022-08-18T11:38:39.533Z,30.80
2022-08-18T11:41:17.265Z,30.70
2022-08-18T11:43:47.797Z,30.90
2022-08-18T11:46:27.800Z,30.80
2022-08-18T11:49:00.219Z,30.80
2022-08-18T11:51:31.405Z,31.30
2022-08-18T11:54:01.055Z,31.50
2022-08-18T11:59:53.246Z,32.10
2022-08-18T12:02:22.433Z,31.90
2022-08-18T12:04:53.635Z,32.00
2022-08-18T12:07:28.769Z,32.20
2022-08-18T12:10:17.665Z,32.50
2022-08-18T12:12:51.959Z,32.60
2022-08-18T12:15:26.277Z,32.70
2022-08-18T12:18:05.407Z,32.70
2022-08-18T12:20:34.222Z,32.80
2022-08-18T12:23:03.124Z,33.00
2022-08-18T12:25:31.951Z,33.50
2022-08-18T12:28:01.902Z,33.50
2022-08-18T12:30:30.647Z,33.80
2022-08-18T12:33:10.237Z,34.00
2022-08-18T12:38:12.700Z,34.50
2022-08-18T12:40:44.192Z,34.20
2022-08-18T12:43:14.282Z,34.20
2022-08-18T12:45:43.604Z,34.20
2022-08-18T12:48:12.337Z,34.10
2022-08-18T12:50:54.301Z,33.90
2022-08-18T12:53:29.497Z,33.70
2022-08-18T12:56:08.722Z,33.20
2022-08-18T12:58:41.098Z,33.00
2022-08-18T13:01:10.414Z,32.80
2022-08-18T13:03:42.592Z,32.60
2022-08-18T13:06:11.897Z,32.40
2022-08-18T13:08:48.025Z,32.30
2022-08-18T13:11:23.527Z,32.10
2022-08-18T13:13:55.989Z,31.90
2022-08-18T13:16:39.249Z,31.80
2022-08-18T13:19:15.817Z,31.70
2022-08-18T13:21:44.565Z,31.50
2022-08-18T13:24:13.533Z,31.30
2022-08-18T13:26:46.695Z,31.50
2022-08-18T13:29:17.676Z,31.40
2022-08-18T13:31:55.579Z,31.40
2022-08-18T13:34:27.626Z,31.20
2022-08-18T13:37:00.147Z,31.20
2022-08-18T13:39:37.341Z,31.30
2022-08-18T13:42:26.795Z,31.10
2022-08-18T13:45:24.835Z,30.90
2022-08-18T13:47:52.018Z,30.80
2022-08-18T13:50:20.972Z,30.90
2022-08-18T13:53:02.267Z,30.80
2022-08-18T13:55:34.535Z,30.80
2022-08-18T13:58:05.079Z,30.80
2022-08-18T14:01:22.889Z,30.90
2022-08-18T14:03:51.394Z,30.90
2022-08-18T14:06:23.764Z,30.90
2022-08-18T14:08:54.344Z,30.90
2022-08-18T14:11:27.619Z,30.80
2022-08-18T14:14:02.124Z,30.80
2022-08-18T14:16:33.389Z,30.60
2022-08-18T14:19:22.598Z,30.50
2022-08-18T14:22:11.227Z,30.40
2022-08-18T14:25:00.233Z,30.60
2022-08-18T14:27:35.021Z,30.60
2022-08-18T14:30:07.692Z,30.50
2022-08-18T14:32:49.144Z,30.40
2022-08-18T14:35:31.721Z,30.40
2022-08-18T14:38:09.987Z,30.40
2022-08-18T14:40:41.873Z,30.40
2022-08-18T14:43:11.997Z,30.40
2022-08-18T14:45:48.808Z,30.40
2022-08-18T14:48:21.876Z,30.40
2022-08-18T14:50:55.374Z,30.40
2022-08-18T14:53:26.551Z,30.50
2022-08-18T14:55:56.323Z,30.50
2022-08-18T14:58:29.276Z,30.60
2022-08-18T15:00:58.630Z,30.60
2022-08-18T15:03:31.429Z,30.50
2022-08-18T15:06:04.790Z,30.50
2022-08-18T15:08:34.444Z,30.50
2022-08-18T15:11:06.167Z,30.60
2022-08-18T15:13:41.586Z,30.60
2022-08-18T15:16:13.824Z,30.70
2022-08-18T15:18:44.344Z,30.90
2022-08-18T15:21:35.537Z,30.90
2022-08-18T15:24:25.765Z,31.00
2022-08-18T15:26:58.295Z,30.90
2022-08-18T15:29:34.301Z,31.10
2022-08-18T15:32:06.199Z,31.00
2022-08-18T15:34:47.268Z,30.90
2022-08-18T15:37:24.167Z,30.70
2022-08-18T15:40:06.032Z,30.40
2022-08-18T15:42:37.820Z,30.20
2022-08-18T15:45:12.108Z,29.90
2022-08-18T15:47:42.938Z,29.60
2022-08-18T15:50:22.426Z,29.40
2022-08-18T15:52:57.654Z,29.30
2022-08-18T15:55:28.700Z,29.40
2022-08-18T15:57:58.522Z,29.50
2022-08-18T16:00:28.546Z,29.60
2022-08-18T16:02:58.815Z,29.70
2022-08-18T16:05:31.759Z,29.70
2022-08-18T16:08:01.233Z,29.80
2022-08-18T16:10:32.314Z,29.90
2022-08-18T16:13:01.712Z,29.80
2022-08-18T16:15:34.070Z,30.00
2022-08-18T16:18:06.242Z,29.90
2022-08-18T16:20:36.562Z,30.00
2022-08-18T16:23:05.501Z,29.80
2022-08-18T16:25:34.345Z,29.60
2022-08-18T16:28:03.146Z,29.40
2022-08-18T16:30:35.052Z,29.30
2022-08-18T16:33:05.111Z,29.00
2022-08-18T16:35:34.526Z,28.80
2022-08-18T16:38:05.647Z,28.60
2022-08-18T16:40:34.411Z,28.20
2022-08-18T16:43:03.975Z,27.90
2022-08-18T16:45:36.082Z,27.80
2022-08-18T16:48:08.134Z,27.70
2022-08-18T16:50:37.748Z,27.60
2022-08-18T16:53:07.666Z,27.60
2022-08-18T16:55:36.441Z,27.50
2022-08-18T16:58:23.820Z,27.40
2022-08-18T17:01:12.634Z,27.30
2022-08-18T17:04:13.571Z,27.20
2022-08-18T17:06:49.482Z,27.00
2022-08-18T17:09:20.315Z,26.90
2022-08-18T17:11:51.434Z,26.80
2022-08-18T17:14:21.559Z,26.60
2022-08-18T17:16:54.293Z,26.60
2022-08-18T17:19:23.373Z,26.50
2022-08-18T17:21:52.283Z,26.50
2022-08-18T17:24:31.506Z,26.40
2022-08-18T17:27:19.239Z,26.30
2022-08-18T17:30:00.497Z,26.30
2022-08-18T17:32:31.655Z,26.20
2022-08-18T17:35:03.887Z,26.10
2022-08-18T17:37:32.964Z,26.00
2022-08-18T17:40:06.523Z,25.80
2022-08-18T17:42:40.107Z,25.70
2022-08-18T17:45:13.872Z,25.50
2022-08-18T17:47:54.511Z,25.30
2022-08-18T17:50:44.108Z,25.10
2022-08-18T17:53:13.443Z,24.90
2022-08-18T17:55:46.200Z,24.80
2022-08-18T17:58:18.729Z,24.50
2022-08-18T18:00:47.531Z,24.40
2022-08-18T18:03:16.467Z,24.30
2022-08-18T18:05:47.738Z,24.10
2022-08-18T18:08:17.126Z,24.10
2022-08-18T18:11:05.368Z,23.90
2022-08-18T18:13:34.767Z,23.80
2022-08-18T18:16:19.609Z,23.70
2022-08-18T18:19:01.616Z,23.60
2022-08-18T18:22:00.418Z,23.50
2022-08-18T18:24:24.089Z,23.40
2022-08-18T18:26:54.373Z,23.30
2022-08-18T18:29:29.221Z,23.30
2022-08-18T18:32:00.791Z,23.10
2022-08-18T18:34:31.899Z,23.00
2022-08-18T18:37:01.807Z,23.00
2022-08-18T18:39:33.000Z,22.90
2022-08-18T18:42:17.987Z,22.80
2022-08-18T18:44:52.751Z,22.70
2022-08-18T18:47:36.352Z,22.70
2022-08-18T18:50:08.033Z,22.60
2022-08-18T18:52:40.394Z,22.50
2022-08-18T18:55:14.851Z,22.40
2022-08-18T18:57:49.413Z,22.40
2022-08-18T19:00:21.141Z,22.30
2022-08-18T19:02:54.234Z,22.20
2022-08-18T19:05:28.799Z,22.20
2022-08-18T19:08:00.665Z,22.10
2022-08-18T19:10:33.731Z,22.00
2022-08-18T19:13:06.001Z,22.00
2022-08-18T19:15:38.250Z,21.90
2022-08-18T19:18:15.058Z,21.90
2022-08-18T19:22:05.573Z,21.90
2022-08-18T19:23:45.070Z,21.80
2022-08-18T19:26:18.187Z,21.70
2022-08-18T19:29:12.716Z,21.70
2022-08-18T19:31:40.291Z,21.60
2022-08-18T19:34:10.657Z,21.60
2022-08-18T19:36:45.336Z,21.60
2022-08-18T19:39:16.987Z,21.60
2022-08-18T19:41:48.569Z,21.60
2022-08-18T19:44:29.294Z,21.50
2022-08-18T19:47:01.746Z,21.50
2022-08-18T19:49:33.978Z,21.50
2022-08-18T19:52:45.768Z,21.40
2022-08-18T19:55:04.650Z,21.40
2022-08-18T19:57:40.646Z,21.40
2022-08-18T20:00:14.480Z,21.30
2022-08-18T20:02:55.692Z,21.30
2022-08-18T20:05:29.838Z,21.30
2022-08-18T20:08:16.502Z,21.30
2022-08-18T20:10:51.746Z,21.40
2022-08-18T20:13:42.487Z,21.40
2022-08-18T20:16:42.605Z,21.40
2022-08-18T20:19:28.441Z,21.40
2022-08-18T20:22:03.266Z,21.40
2022-08-18T20:24:38.369Z,21.50
2022-08-18T20:27:15.904Z,21.40
2022-08-18T20:29:47.319Z,21.40
2022-08-18T20:32:20.211Z,21.40
2022-08-18T20:34:50.965Z,21.40
2022-08-18T20:37:25.528Z,21.30
2022-08-18T20:39:56.689Z,21.20
2022-08-18T20:42:44.157Z,21.20
2022-08-18T20:45:29.239Z,21.20
2022-08-18T20:48:11.138Z,21.10
2022-08-18T20:50:49.801Z,21.10
2022-08-18T20:53:36.485Z,21.10
2022-08-18T20:56:32.339Z,21.10
2022-08-18T20:59:09.028Z,21.10
2022-08-18T21:01:39.010Z,21.10
2022-08-18T21:04:07.616Z,21.10
2022-08-18T21:06:38.105Z,21.10
2022-08-18T21:09:07.004Z,21.10
2022-08-18T21:11:39.154Z,21.10
2022-08-18T21:14:09.463Z,21.10
2022-08-18T21:16:39.495Z,21.10
2022-08-18T21:19:13.833Z,21.20
2022-08-18T21:21:45.544Z,21.10
2022-08-18T21:24:22.196Z,21.10
2022-08-18T21:26:55.524Z,21.10
2022-08-18T21:29:24.268Z,21.00
2022-08-18T21:32:06.214Z,21.00
2022-08-18T21:34:35.892Z,21.00
2022-08-18T21:37:07.923Z,21.00
2022-08-18T21:39:47.085Z,21.00
2022-08-18T21:42:20.582Z,21.00
2022-08-18T21:44:52.280Z,21.00
2022-08-18T21:47:23.803Z,20.90
2022-08-18T21:50:00.523Z,20.90
2022-08-18T21:52:31.913Z,20.90
2022-08-18T21:55:03.113Z,20.90
2022-08-18T22:00:28.332Z,20.90
2022-08-18T22:03:11.395Z,20.80
2022-08-18T22:05:55.105Z,20.80
2022-08-18T22:08:29.945Z,20.70
2022-08-18T22:11:44.181Z,20.60
2022-08-18T22:14:15.853Z,20.60
2022-08-18T22:16:47.801Z,20.50
2022-08-18T22:19:24.647Z,20.50
2022-08-18T22:22:01.968Z,20.40
2022-08-18T22:24:35.197Z,20.40
2022-08-18T22:27:06.965Z,20.40
2022-08-18T22:29:41.475Z,20.30
2022-08-18T22:32:15.703Z,20.30
2022-08-18T22:34:44.531Z,20.30
2022-08-18T22:37:15.609Z,20.30
2022-08-18T22:39:50.741Z,20.20
2022-08-18T22:42:20.979Z,20.10
2022-08-18T22:44:49.740Z,20.10
2022-08-18T22:47:20.075Z,20.10
2022-08-18T22:49:48.634Z,20.00
2022-08-18T22:52:20.036Z,20.00
2022-08-18T22:54:50.925Z,19.90
2022-08-18T22:57:19.669Z,19.90
2022-08-18T22:59:52.463Z,19.80
2022-08-18T23:02:22.707Z,19.80
2022-08-18T23:04:51.302Z,19.70
2022-08-18T23:07:22.931Z,19.60
2022-08-18T23:09:51.576Z,19.60
2022-08-18T23:12:20.263Z,19.50
2022-08-18T23:14:49.571Z,19.50
2022-08-18T23:17:18.669Z,19.50
2022-08-18T23:19:48.489Z,19.30
2022-08-18T23:22:20.984Z,19.40
2022-08-18T23:24:49.670Z,19.40
2022-08-18T23:27:20.730Z,19.40
2022-08-18T23:29:50.760Z,19.30
2022-08-18T23:32:19.471Z,19.30
2022-08-18T23:34:49.605Z,19.20
2022-08-18T23:37:21.495Z,19.20
2022-08-18T23:39:50.179Z,19.20
2022-08-18T23:42:18.770Z,19.20
2022-08-18T23:44:51.742Z,19.20
2022-08-18T23:47:21.158Z,19.20
2022-08-18T23:49:51.519Z,19.20
2022-08-18T23:52:21.399Z,19.20
2022-08-18T23:54:50.043Z,19.20
2022-08-18T23:57:18.823Z,19.30
2022-08-18T23:59:47.471Z,19.20
